Thousand Palms, CA (92276)

7:50 PM PDT on July 05, 2015 (GMT -0700)
DesertWeather com | Change Station
CLOSE
Current Station
Personal Weather Station
Location: Thousand Palms, CA
Elevation: 275 ft
Nearby Weather Stations

Elev 275 ft 33.82 °N, 116.40 °W | Updated 38 seconds ago

Partly Cloudy
Partly Cloudy
94.9 °F
Feels Like 93 °F
N
10.5
Wind Variable Wind from NW
Gusts 13.8 mph

Today
High -- | Low -- °F
--% Chance of Precip.
Yesterday
High -- | Low -- °F
Precip. -- in
5:40 AM 7:59 PM
Waning Gibbous, 80% visible
Pressure 29.76 in
Visibility 10.0 miles
Clouds Scattered Clouds 15000 ft
Heat Index 93 °F
Dew Point 56 °F
Humidity 27%
Rainfall 0.00 in
Snow Depth Not available.
UV 0 out of 12
Pollen 4.20 out of 12
Ozone Good
PM10 Good
Flu Activity Not available.
METAR KPSP 060153Z 32013G20KT 10SM SCT150 38/13 A2977 RMK AO2 SLP076 T03830133

More Conditions Fewer Conditions

Pressure 29.76 in
Visibility 10.0 miles
Clouds Scattered Clouds 15000 ft
Heat Index 93 °F
Dew Point 56 °F
Humidity 27%
Rainfall 0.00 in
Snow Depth Not available.
UV 0 out of 12
Pollen 4.20 out of 12
Ozone Good
PM10 Good
Flu Activity Not available.
METAR KPSP 060153Z 32013G20KT 10SM SCT150 38/13 A2977 RMK AO2 SLP076 T03830133

More Conditions Fewer Conditions

10-Day Weather Forecast

Almanac

Astronomy

Jul. 05, 2015 Rise Set
Actual Time 5:40 AM PDT 7:59 PM PDT
Civil Twilight 5:11 AM PDT 8:28 PM PDT
Nautical Twilight 4:35 AM PDT 9:04 PM PDT
Astronomical Twilight 3:57 AM PDT 9:42 PM PDT
Moon 10:46 PM PDT (7/5) 9:38 AM PDT (7/5)
Length of Visible Light 15h 17m
Length of Day
14h 19m
Tomorrow will be 0m 39s shorter.
Waning Gibbous, 80% of the Moon is Illuminated
Today
Waning Gibbous
Jul 8
Last Quarter
Jul 15
New
Jul 24
First Quarter
Jul 31
Full

Today's Extremes

State Highs State Lows

Community

WunderPhotos

Upload Photos

1,835,454 photos uploaded!

Nearby

Air Quality

  Air Quality AQ Index Pollutant
Yesterday Moderate
OZONE
Yesterday Good
PM10
Current Good
OZONE
Current Good
PM10
Monday Moderate
OZONE
Monday Good
PM10
Monday Good
CO
Monday Good
NO2

Snow Depth

Station Depth Elevation
Virginia Lakes Ridge 0 in 9200 ft
Leavitt Meadows 0 in 7200 ft
Adin Mountain 0 in 6200 ft
Cedar Pass 0 in 7100 ft

Earthquake Activity

City Distance Mag. Time & Date
Brawley, California 74 miles 2.6 12:44 PM PDT
2015-07-02
Minimum magnitude displayed is 2.5.

Coastal Water Temperatures

Place Temperature
No Stations Reporting

Nearby Weather Stations